GBFRV EGKK-LIMJ
Flight info
| Callsign | GBFRV |
|---|---|
| Flight time | N/A |
| Altitude | 45000 |
| Route | SFD Y47 BENBO UL612 OGULO DCT OKASI DCT OKEKO DCT MOU DCT MADIV DCT MOKIP DCT TUFTA DCT GEVEA/N0498F330 DCT MOBLO DCT LURAG DCT OBUXA DCT TOP/N0459F190 M730 TESTO |
| Aircraft | C750/M-SBDE3FGHRWXY/S |
Departure
| Time | 2026-05-05 18:21 |
|---|---|
| Airport | London Gatwick Airport (EGKK) |
Arrival
| Time | N/A |
|---|---|
| Airport | Genoa Cristoforo Colombo Airport (LIMJ) |
| Time | Latitude | Longitude | Altitude | Speed | Heading |
|---|---|---|---|---|---|
| 2026-05-05 17:42 | 51.16239 | -0.18339 | 200 ft | 0 kts | 258° |
| 2026-05-05 18:07 | 51.16238 | -0.18332 | 200 ft | 3 kts | 220° |
| 2026-05-05 18:07 | 51.16255 | -0.18321 | 209 ft | 0 kts | 175° |
| 2026-05-05 18:07 | 51.16257 | -0.18320 | 208 ft | 0 kts | 161° |
| 2026-05-05 18:07 | 51.16248 | -0.18291 | 200 ft | 5 kts | 126° |
| 2026-05-05 18:08 | 51.16246 | -0.18289 | 200 ft | 0 kts | 134° |
| 2026-05-05 18:10 | 51.16246 | -0.18288 | 200 ft | 0 kts | 133° |
| 2026-05-05 18:11 | 51.16215 | -0.18242 | 200 ft | 16 kts | 140° |
| 2026-05-05 18:11 | 51.16072 | -0.18158 | 206 ft | 27 kts | 168° |
| 2026-05-05 18:11 | 51.15858 | -0.18084 | 200 ft | 33 kts | 169° |
| 2026-05-05 18:11 | 51.15702 | -0.18003 | 203 ft | 18 kts | 115° |
| 2026-05-05 18:12 | 51.15707 | -0.17901 | 205 ft | 0 kts | 81° |
| 2026-05-05 18:12 | 51.15699 | -0.17908 | 202 ft | 5 kts | 254° |
| 2026-05-05 18:12 | 51.15685 | -0.18056 | 200 ft | 26 kts | 258° |
| 2026-05-05 18:12 | 51.15644 | -0.18329 | 205 ft | 19 kts | 237° |
| 2026-05-05 18:13 | 51.15532 | -0.18326 | 200 ft | 17 kts | 166° |
| 2026-05-05 18:13 | 51.15410 | -0.18284 | 200 ft | 19 kts | 167° |
| 2026-05-05 18:13 | 51.15285 | -0.18239 | 200 ft | 14 kts | 169° |
| 2026-05-05 18:13 | 51.15261 | -0.18232 | 200 ft | 0 kts | 168° |
| 2026-05-05 18:15 | 51.15260 | -0.18231 | 200 ft | 1 kts | 168° |
| 2026-05-05 18:16 | 51.15246 | -0.18226 | 203 ft | 7 kts | 168° |
| 2026-05-05 18:16 | 51.15188 | -0.18280 | 200 ft | 16 kts | 266° |
| 2026-05-05 18:16 | 51.15158 | -0.18526 | 207 ft | 29 kts | 258° |
| 2026-05-05 18:16 | 51.15106 | -0.18907 | 203 ft | 39 kts | 258° |
| 2026-05-05 18:17 | 51.15046 | -0.19253 | 203 ft | 17 kts | 216° |
| 2026-05-05 18:17 | 51.14958 | -0.19324 | 203 ft | 15 kts | 251° |
| 2026-05-05 18:17 | 51.14934 | -0.19491 | 202 ft | 19 kts | 256° |
| 2026-05-05 18:17 | 51.14898 | -0.19749 | 207 ft | 29 kts | 257° |
| 2026-05-05 18:18 | 51.14847 | -0.20118 | 200 ft | 39 kts | 257° |
| 2026-05-05 18:18 | 51.14790 | -0.20527 | 200 ft | 17 kts | 257° |
| 2026-05-05 18:18 | 51.14768 | -0.20691 | 204 ft | 15 kts | 258° |
| 2026-05-05 18:18 | 51.14745 | -0.20845 | 203 ft | 14 kts | 256° |
| 2026-05-05 18:19 | 51.14726 | -0.20982 | 207 ft | 12 kts | 260° |
| 2026-05-05 18:19 | 51.14709 | -0.21122 | 205 ft | 14 kts | 258° |
| 2026-05-05 18:19 | 51.14687 | -0.21277 | 201 ft | 15 kts | 256° |
| 2026-05-05 18:19 | 51.14599 | -0.21319 | 203 ft | 16 kts | 169° |
| 2026-05-05 18:20 | 51.14520 | -0.21202 | 204 ft | 17 kts | 98° |
| 2026-05-05 18:20 | 51.14532 | -0.21078 | 203 ft | 0 kts | 79° |
| 2026-05-05 18:20 | 51.14532 | -0.21077 | 203 ft | 1 kts | 79° |
| 2026-05-05 18:20 | 51.14541 | -0.21012 | 206 ft | 11 kts | 78° |
| 2026-05-05 18:21 | 51.14607 | -0.20520 | 202 ft | 100 kts | 77° |
| 2026-05-05 18:21 | 51.14797 | -0.19111 | 413 ft | 146 kts | 78° |
| 2026-05-05 18:21 | 51.15014 | -0.17390 | 888 ft | 169 kts | 79° |
| 2026-05-05 18:21 | 51.15262 | -0.15465 | 1473 ft | 186 kts | 78° |
| 2026-05-05 18:22 | 51.15539 | -0.13343 | 1984 ft | 207 kts | 76° |
| 2026-05-05 18:22 | 51.15770 | -0.10880 | 2394 ft | 244 kts | 85° |
| 2026-05-05 18:22 | 51.15659 | -0.08076 | 3239 ft | 258 kts | 97° |
| 2026-05-05 18:22 | 51.15292 | -0.05240 | 4316 ft | 265 kts | 100° |
| 2026-05-05 18:23 | 51.14875 | -0.02361 | 5478 ft | 266 kts | 101° |
| 2026-05-05 18:23 | 51.14440 | 0.00495 | 6740 ft | 269 kts | 101° |
| 2026-05-05 18:23 | 51.13983 | 0.03469 | 7612 ft | 283 kts | 102° |
| 2026-05-05 18:23 | 51.13504 | 0.06642 | 8033 ft | 302 kts | 101° |
| 2026-05-05 18:24 | 51.13021 | 0.09716 | 8239 ft | 271 kts | 102° |
| 2026-05-05 18:24 | 51.12529 | 0.12512 | 8256 ft | 252 kts | 104° |
| 2026-05-05 18:24 | 51.11801 | 0.14957 | 8129 ft | 248 kts | 130° |
| 2026-05-05 18:24 | 51.10308 | 0.16236 | 7990 ft | 247 kts | 169° |
| 2026-05-05 18:25 | 51.08613 | 0.16304 | 8053 ft | 247 kts | 186° |
| 2026-05-05 18:25 | 51.07454 | 0.16045 | 8063 ft | 252 kts | 189° |
| 2026-05-05 18:25 | 51.05105 | 0.15504 | 8055 ft | 261 kts | 186° |
| 2026-05-05 18:25 | 51.03275 | 0.15298 | 8045 ft | 267 kts | 183° |
| 2026-05-05 18:26 | 51.01393 | 0.15139 | 8033 ft | 275 kts | 184° |
| 2026-05-05 18:26 | 50.99472 | 0.14919 | 8015 ft | 278 kts | 185° |
| 2026-05-05 18:26 | 50.97531 | 0.14675 | 8009 ft | 281 kts | 185° |
| 2026-05-05 18:26 | 50.95571 | 0.14445 | 7993 ft | 283 kts | 184° |
| 2026-05-05 18:27 | 50.93603 | 0.14222 | 8127 ft | 281 kts | 184° |
| 2026-05-05 18:27 | 50.91612 | 0.13991 | 8919 ft | 296 kts | 184° |
| 2026-05-05 18:27 | 50.89503 | 0.13744 | 9735 ft | 310 kts | 185° |
| 2026-05-05 18:27 | 50.87328 | 0.13491 | 10602 ft | 316 kts | 184° |
| 2026-05-05 18:28 | 50.82874 | 0.12978 | 12385 ft | 326 kts | 184° |
| 2026-05-05 18:28 | 50.80593 | 0.12713 | 13299 ft | 330 kts | 182° |
| 2026-05-05 18:28 | 50.78297 | 0.12449 | 14177 ft | 333 kts | 183° |
| 2026-05-05 18:29 | 50.75984 | 0.12493 | 14990 ft | 334 kts | 172° |
| 2026-05-05 18:29 | 50.73696 | 0.13149 | 15852 ft | 335 kts | 167° |
| 2026-05-05 18:29 | 50.71423 | 0.13964 | 16748 ft | 337 kts | 167° |
| 2026-05-05 18:29 | 50.69102 | 0.14615 | 17669 ft | 340 kts | 171° |
| 2026-05-05 18:30 | 50.66747 | 0.15098 | 18562 ft | 343 kts | 172° |
| 2026-05-05 18:30 | 50.64382 | 0.15637 | 19401 ft | 345 kts | 170° |
| 2026-05-05 18:30 | 50.62005 | 0.16267 | 20260 ft | 348 kts | 169° |
| 2026-05-05 18:30 | 50.59572 | 0.16901 | 20684 ft | 366 kts | 170° |
| 2026-05-05 18:31 | 50.57043 | 0.17505 | 21494 ft | 368 kts | 171° |
| 2026-05-05 18:31 | 50.54511 | 0.18111 | 22434 ft | 368 kts | 170° |
| 2026-05-05 18:31 | 50.51979 | 0.18745 | 23397 ft | 368 kts | 170° |
| 2026-05-05 18:31 | 50.49451 | 0.19377 | 24223 ft | 367 kts | 170° |
| 2026-05-05 18:32 | 50.46934 | 0.19993 | 25063 ft | 365 kts | 170° |
| 2026-05-05 18:32 | 50.44423 | 0.20606 | 25925 ft | 364 kts | 171° |
| 2026-05-05 18:32 | 50.41934 | 0.21218 | 26801 ft | 362 kts | 170° |
| 2026-05-05 18:32 | 50.39386 | 0.21846 | 26952 ft | 382 kts | 170° |
| 2026-05-05 18:33 | 50.36697 | 0.22506 | 27295 ft | 394 kts | 170° |
| 2026-05-05 18:33 | 50.33990 | 0.23164 | 28106 ft | 394 kts | 170° |
| 2026-05-05 18:33 | 50.31277 | 0.23827 | 28945 ft | 394 kts | 171° |
| 2026-05-05 18:33 | 50.28563 | 0.24491 | 29802 ft | 393 kts | 170° |
| 2026-05-05 18:34 | 50.25867 | 0.25149 | 30562 ft | 392 kts | 170° |
| 2026-05-05 18:34 | 50.23177 | 0.25805 | 31312 ft | 390 kts | 170° |
| 2026-05-05 18:34 | 50.20563 | 0.26876 | 32029 ft | 388 kts | 158° |
| 2026-05-05 18:34 | 50.18179 | 0.28798 | 32807 ft | 386 kts | 147° |
| 2026-05-05 18:35 | 50.15951 | 0.31105 | 33645 ft | 382 kts | 146° |
| 2026-05-05 18:35 | 50.13739 | 0.33382 | 34337 ft | 381 kts | 146° |
| 2026-05-05 18:35 | 50.11505 | 0.35664 | 34810 ft | 385 kts | 147° |
| 2026-05-05 18:35 | 50.09259 | 0.37964 | 35288 ft | 388 kts | 147° |
| 2026-05-05 18:36 | 50.07027 | 0.40254 | 35766 ft | 391 kts | 147° |
| 2026-05-05 18:36 | 50.04743 | 0.42591 | 36267 ft | 394 kts | 147° |
| 2026-05-05 18:36 | 50.02436 | 0.44946 | 36785 ft | 397 kts | 147° |
| 2026-05-05 18:36 | 50.00124 | 0.47305 | 37311 ft | 399 kts | 148° |
| 2026-05-05 18:37 | 49.97795 | 0.49682 | 37852 ft | 402 kts | 148° |
| 2026-05-05 18:37 | 49.95452 | 0.52067 | 38401 ft | 404 kts | 149° |
| 2026-05-05 18:37 | 49.93084 | 0.54474 | 38693 ft | 411 kts | 149° |
| 2026-05-05 18:37 | 49.90668 | 0.56925 | 38906 ft | 419 kts | 149° |
| 2026-05-05 18:38 | 49.88201 | 0.59429 | 39132 ft | 427 kts | 149° |
| 2026-05-05 18:38 | 49.85707 | 0.61989 | 39357 ft | 434 kts | 147° |
| 2026-05-05 18:38 | 49.83307 | 0.64913 | 39588 ft | 442 kts | 143° |
| 2026-05-05 18:38 | 49.80921 | 0.67980 | 39832 ft | 449 kts | 142° |
| 2026-05-05 18:39 | 49.78497 | 0.71073 | 40074 ft | 455 kts | 143° |
| 2026-05-05 18:39 | 49.76016 | 0.74162 | 40317 ft | 461 kts | 143° |
| 2026-05-05 18:39 | 49.73499 | 0.77293 | 40558 ft | 467 kts | 142° |
| 2026-05-05 18:39 | 49.70964 | 0.80485 | 40806 ft | 473 kts | 142° |
| 2026-05-05 18:40 | 49.68406 | 0.83708 | 41052 ft | 478 kts | 142° |
| 2026-05-05 18:40 | 49.65808 | 0.86952 | 41309 ft | 483 kts | 143° |
| 2026-05-05 18:40 | 49.63177 | 0.90223 | 41549 ft | 488 kts | 142° |
| 2026-05-05 18:40 | 49.60529 | 0.93525 | 41806 ft | 491 kts | 142° |
| 2026-05-05 18:41 | 49.57865 | 0.96849 | 42052 ft | 495 kts | 142° |
| 2026-05-05 18:41 | 49.55180 | 1.00189 | 42311 ft | 497 kts | 142° |
| 2026-05-05 18:41 | 49.52478 | 1.03538 | 42573 ft | 500 kts | 142° |
| 2026-05-05 18:41 | 49.49763 | 1.06901 | 42834 ft | 502 kts | 142° |
| 2026-05-05 18:42 | 49.47040 | 1.10274 | 43103 ft | 503 kts | 142° |
| 2026-05-05 18:42 | 49.44308 | 1.13652 | 43373 ft | 505 kts | 142° |
| 2026-05-05 18:42 | 49.41566 | 1.17033 | 43646 ft | 506 kts | 142° |
| 2026-05-05 18:42 | 49.38822 | 1.20414 | 43920 ft | 506 kts | 142° |
| 2026-05-05 18:43 | 49.36107 | 1.23757 | 44196 ft | 507 kts | 142° |
| 2026-05-05 18:43 | 49.33346 | 1.27151 | 44477 ft | 508 kts | 142° |
| 2026-05-05 18:43 | 49.30589 | 1.30533 | 44739 ft | 508 kts | 143° |
| 2026-05-05 18:43 | 49.27822 | 1.33923 | 44843 ft | 511 kts | 142° |
| 2026-05-05 18:44 | 49.22216 | 1.40776 | 44850 ft | 520 kts | 142° |
| 2026-05-05 18:44 | 49.16524 | 1.47714 | 44848 ft | 526 kts | 142° |
| 2026-05-05 18:45 | 49.10766 | 1.54710 | 44842 ft | 531 kts | 143° |
| 2026-05-05 18:45 | 49.04969 | 1.61733 | 44837 ft | 533 kts | 143° |
| 2026-05-05 18:46 | 48.99159 | 1.68750 | 44834 ft | 533 kts | 143° |
| 2026-05-05 18:46 | 48.93345 | 1.75750 | 44820 ft | 533 kts | 143° |
| 2026-05-05 18:47 | 48.87533 | 1.82727 | 44817 ft | 532 kts | 143° |
| 2026-05-05 18:47 | 48.81714 | 1.89689 | 44823 ft | 532 kts | 143° |
| 2026-05-05 18:48 | 48.75890 | 1.96638 | 44827 ft | 533 kts | 143° |
| 2026-05-05 18:48 | 48.70063 | 2.03568 | 44833 ft | 532 kts | 143° |